Southern Ontario METAR Reports

CYSN - St.Catharines
Updated: 01/19/2021 9:00pm
NOT Current
Light snow, Overcast
Light snow, Overcast
 Wind from W
Wind: W 22 km/h
Temperature: -1°C
Wind Chill: -7°C
Dew Point: -6°C
Humidity: 69%
Barometer: 1015.6 hPa
Summary: Light Snow
Clouds: Overcast
Visibility: 13 km
Cloud details: Partly cloudy 1006 m
Overcast 1341 m
2021/01/20 02:00 CYSN 200200Z 27012KT 8SM -SN SCT033 OVC044 M01/M06 A2999 RMK SF4SC4 LAST STFD OBS / NEXT 201200 UTC SLP160
CYHM - Hamilton
Updated: 01/19/2021 11:00pm
Light snow, Overcast
Light snow, Overcast
 Wind from W
Wind: W 15 km/h
Temperature: -2°C
Wind Chill: -7°C
Dew Point: -5°C
Humidity: 80%
Barometer: 1013.5 hPa
Summary: Light Snow
Clouds: Overcast
Visibility: 24 km
Cloud details: Overcast 1097 m
2021/01/20 04:00 CYHM 200400Z 27008KT 15SM -SN OVC036 M02/M05 A2993 RMK SC8 SLP149
 
CYYZ - Toronto
Updated: 01/19/2021 11:00pm
Mostly cloudy
Mostly cloudy
 Wind from W
Wind: W 17 km/h
Temperature: -3°C
Wind Chill: -8°C
Dew Point: -8°C
Humidity: 69%
Barometer: 1013.9 hPa
Clouds: Mostly cloudy
Visibility: 24 km
Cloud details: Mostly cloudy 1585 m
2021/01/20 04:00 CYYZ 200400Z 26009KT 15SM BKN052 M03/M08 A2994 RMK SC7 SLP148
CYKF - Waterloo
Updated: 01/19/2021 11:02pm
Partly cloudy
Partly cloudy
 Wind from WNW
Wind: WNW 15 km/h
Temperature: -5°C
Wind Chill: -11°C
Dew Point: -8°C
Humidity: 80%
Barometer: 1013.2 hPa
Clouds: Partly cloudy
Visibility: 14 km
Cloud details: Partly cloudy 1524 m
Partly cloudy 2743 m
2021/01/20 04:02 CYKF 200402Z AUTO 29008KT 9SM SCT050 SCT090 M05/M08 A2992 RMK SLP148
 
CYXU - London
Updated: 01/19/2021 11:00pm
Light snow, Showers, Overcast
Light snow, Showers, Overcast
 Wind from WNW
Wind: WNW 15 km/h
Temperature: -4°C
Wind Chill: -9°C
Dew Point: -5°C
Humidity: 93%
Barometer: 1013.9 hPa
Summary: Light snow, Showers
Clouds: Overcast
Visibility: 3 km
Cloud details: Partly cloudy 244 m
Overcast 640 m
2021/01/20 04:00 CYXU 200400Z 29008KT 2SM -SHSN SCT008 OVC021 M04/M05 A2994 RMK SN1SF3SC4 CVCTV CLD EMBD SLP155
CYQG - Windsor
Updated: 01/19/2021 11:00pm
Light snow, Overcast
Light snow, Overcast
 Wind from W
Wind: W 17 km/h, Gust: 28 km/h
Temperature: -2°C
Wind Chill: -7°C
Dew Point: -4°C
Humidity: 86%
Barometer: 1015.2 hPa
Summary: Light Snow
Clouds: Overcast
Visibility: 5 km
Cloud details: Partly cloudy 366 m
Overcast 1097 m
2021/01/20 04:00 CYQG 200400Z AUTO 26009G15KT 3SM -SN SCT012 OVC036 M02/M04 A2998 RMK SLP165
 
CYZR - Sarnia
Updated: 01/19/2021 11:00pm
Light snow, Overcast
Light snow, Overcast
 Wind from NNW
Wind: NNW 22 km/h, Gust: 33 km/h
Temperature: -4°C
Wind Chill: -11°C
Dew Point: -5°C
Humidity: 93%
Barometer: 1015.6 hPa
Summary: Light Snow
Clouds: Overcast
Visibility: 2.8 km
Cloud details: Partly cloudy 305 m
Mostly cloudy 488 m
Mostly cloudy 640 m
Overcast 975 m
2021/01/20 04:00 CYZR 200400Z AUTO 33012G18KT 1 3/4SM -SN SCT010 BKN016 BKN021 OVC032 M04/M05 A2999 RMK SLP163
CYVV - Wiarton
Updated: 01/19/2021 11:00pm
Light snow, Showers, Low drifting, Snow, Overcast
Light snow, Showers, Low drifting, Snow, Overcast
 Wind from NNW
Wind: NNW 15 km/h, Gust: 28 km/h
Temperature: -6°C
Wind Chill: -12°C
Dew Point: -7°C
Humidity: 93%
Barometer: 1012.9 hPa
Summary: Light snow, Showers, Low drifting, Snow
Clouds: Overcast
Visibility: 5 km
Cloud details: Overcast 1158 m
2021/01/20 04:00 CYVV 200400Z 34008G15KT 290V010 3SM -SHSN DRSN OVC038 M06/M07 A2991 RMK SC8 CVCTV CLD EMBD SLP143
 
CYPQ - Peterborough
Updated: 01/19/2021 11:00pm
Clear
Clear
 Wind from WSW
Wind: WSW 11 km/h
Temperature: -4°C
Wind Chill: -8°C
Dew Point: -8°C
Humidity: 74%
Barometer: 1012.5 hPa
Clouds: Clear
Visibility: 14 km
2021/01/20 04:00 CYPQ 200400Z AUTO 24006KT 9SM CLR M04/M08 A2990 RMK SLP135
CYTR - Trenton
Updated: 01/19/2021 11:00pm
Mostly cloudy
Mostly cloudy
 Wind from W
Wind: W 17 km/h
Temperature: -2°C
Wind Chill: -7°C
Dew Point: -9°C
Humidity: 59%
Barometer: 1013.2 hPa
Clouds: Mostly cloudy
Visibility: 14 km
Cloud details: Mostly cloudy 2377 m
2021/01/20 04:00 CYTR 200400Z AUTO 26009KT 9SM BKN078 M02/M09 A2992 RMK SLP139